createdAt,value
2023-04-20T00:01:24.987Z,59.95
2023-04-20T00:03:52.726Z,59.73
2023-04-20T00:06:22.012Z,60.22
2023-04-20T00:08:49.011Z,60.92
2023-04-20T00:11:15.822Z,59.78
2023-04-20T00:13:43.062Z,59.67
2023-04-20T00:16:09.971Z,60.61
2023-04-20T00:18:36.876Z,60.48
2023-04-20T00:21:04.180Z,59.64
2023-04-20T00:23:31.134Z,61.08
2023-04-20T00:25:58.071Z,59.54
2023-04-20T00:28:24.968Z,60.22
2023-04-20T00:30:51.836Z,60.09
2023-04-20T00:33:18.751Z,60.05
2023-04-20T00:35:45.598Z,59.74
2023-04-20T00:38:12.469Z,59.69
2023-04-20T00:40:39.315Z,60.35
2023-04-20T00:43:10.713Z,60.89
2023-04-20T00:45:37.716Z,60.31
2023-04-20T00:48:05.621Z,60.00
2023-04-20T00:50:33.555Z,60.47
2023-04-20T00:53:02.059Z,60.99
2023-04-20T00:55:30.550Z,60.15
2023-04-20T00:57:57.602Z,60.71
2023-04-20T01:00:25.788Z,59.83
2023-04-20T01:02:52.902Z,59.18
2023-04-20T01:05:20.937Z,59.32
2023-04-20T01:07:47.948Z,59.05
2023-04-20T01:10:15.047Z,59.74
2023-04-20T01:12:42.353Z,59.93
2023-04-20T01:15:11.328Z,59.68
2023-04-20T01:17:40.149Z,59.97
2023-04-20T01:20:14.797Z,60.15
2023-04-20T01:22:49.366Z,59.26
2023-04-20T01:25:17.490Z,60.19
2023-04-20T01:27:45.056Z,60.44
2023-04-20T01:30:12.965Z,60.25
2023-04-20T01:32:40.720Z,61.54
2023-04-20T01:35:09.328Z,61.48
2023-04-20T01:37:38.095Z,62.00
2023-04-20T01:40:06.532Z,61.68
2023-04-20T01:42:33.385Z,61.56
2023-04-20T01:45:00.283Z,62.11
2023-04-20T01:47:27.270Z,63.07
2023-04-20T01:49:54.466Z,62.71
2023-04-20T01:52:21.322Z,63.47
2023-04-20T01:54:48.745Z,63.46
2023-04-20T01:57:15.624Z,63.82
2023-04-20T01:59:42.656Z,64.27
2023-04-20T02:02:09.621Z,64.61
2023-04-20T02:04:36.933Z,65.28
2023-04-20T02:07:03.757Z,64.28
2023-04-20T02:09:30.703Z,63.61
2023-04-20T02:11:58.311Z,64.61
2023-04-20T02:14:25.142Z,63.57
2023-04-20T02:16:53.584Z,62.69
2023-04-20T02:19:20.554Z,62.82
2023-04-20T02:21:47.396Z,62.84
2023-04-20T02:24:14.397Z,62.03
2023-04-20T02:26:41.190Z,62.20
2023-04-20T02:29:08.098Z,62.32
2023-04-20T02:31:34.994Z,61.94
2023-04-20T02:34:02.699Z,60.55
2023-04-20T02:36:29.540Z,60.04
2023-04-20T02:38:56.458Z,59.18
2023-04-20T02:41:23.337Z,58.70
2023-04-20T02:43:50.263Z,58.28
2023-04-20T02:46:18.159Z,57.92
2023-04-20T02:48:45.372Z,57.91
2023-04-20T02:51:12.431Z,57.81
2023-04-20T02:53:43.874Z,57.43
2023-04-20T02:56:27.161Z,55.47
2023-04-20T02:58:56.723Z,56.83
2023-04-20T03:01:30.622Z,54.65
2023-04-20T03:04:06.806Z,53.54
2023-04-20T03:06:38.950Z,52.25
2023-04-20T03:09:09.169Z,50.46
2023-04-20T03:11:59.341Z,50.00
2023-04-20T03:14:46.477Z,49.18
2023-04-20T03:17:13.981Z,49.21
2023-04-20T03:19:41.794Z,49.42
2023-04-20T03:22:08.731Z,49.35
2023-04-20T03:24:36.900Z,49.41
2023-04-20T03:27:13.505Z,49.58
2023-04-20T03:30:00.969Z,50.50
2023-04-20T03:32:30.181Z,51.27
2023-04-20T03:34:58.259Z,52.13
2023-04-20T03:37:25.208Z,53.15
2023-04-20T03:39:52.095Z,53.94
2023-04-20T03:42:19.746Z,55.25
2023-04-20T03:44:48.644Z,54.63
2023-04-20T03:47:15.836Z,55.59
2023-04-20T03:49:42.875Z,54.36
2023-04-20T03:52:11.019Z,53.83
2023-04-20T03:54:37.992Z,53.30
2023-04-20T03:57:04.991Z,57.59
2023-04-20T03:59:32.177Z,57.52
2023-04-20T04:02:02.116Z,59.67
2023-04-20T04:04:29.401Z,61.35
2023-04-20T04:06:58.854Z,60.65
2023-04-20T04:09:28.460Z,61.49
2023-04-20T04:11:55.266Z,58.96
2023-04-20T04:14:23.577Z,60.16
2023-04-20T04:16:50.457Z,58.86
2023-04-20T04:19:17.687Z,58.67
2023-04-20T04:21:44.883Z,58.74
2023-04-20T04:24:13.561Z,59.13
2023-04-20T04:26:56.857Z,57.36
2023-04-20T04:29:30.456Z,57.77
2023-04-20T04:32:04.410Z,57.75
2023-04-20T04:34:35.055Z,58.53
2023-04-20T04:37:02.712Z,57.13
2023-04-20T04:39:41.671Z,57.37
2023-04-20T04:42:30.984Z,56.36
2023-04-20T04:45:04.875Z,57.39
2023-04-20T04:47:37.271Z,57.33
2023-04-20T04:50:09.499Z,56.24
2023-04-20T04:52:37.477Z,55.82
2023-04-20T04:55:08.510Z,57.37
2023-04-20T04:57:36.340Z,56.48
2023-04-20T05:00:07.104Z,56.70
2023-04-20T05:02:34.303Z,57.97
2023-04-20T05:05:01.557Z,56.57
2023-04-20T05:07:28.386Z,56.16
2023-04-20T05:09:55.392Z,55.98
2023-04-20T05:12:22.424Z,55.99
2023-04-20T05:14:49.280Z,56.77
2023-04-20T05:17:16.171Z,57.48
2023-04-20T05:19:43.039Z,56.56
2023-04-20T05:22:09.976Z,59.64
2023-04-20T05:24:36.836Z,57.18
2023-04-20T05:27:04.592Z,57.73
2023-04-20T05:29:31.529Z,57.51
2023-04-20T05:31:58.491Z,58.24
2023-04-20T05:34:25.389Z,59.87
2023-04-20T05:36:53.119Z,61.27
2023-04-20T05:39:20.118Z,64.06
2023-04-20T05:41:47.899Z,65.53
2023-04-20T05:44:14.800Z,66.64
2023-04-20T05:46:41.691Z,67.68
2023-04-20T05:49:08.618Z,72.32
2023-04-20T05:51:35.452Z,72.71
2023-04-20T05:54:02.681Z,75.21
2023-04-20T05:56:29.729Z,77.67
2023-04-20T05:58:57.170Z,79.67
2023-04-20T06:01:24.003Z,79.87
2023-04-20T06:03:51.276Z,82.11
2023-04-20T06:06:18.305Z,81.85
2023-04-20T06:08:45.154Z,83.14
2023-04-20T06:11:12.041Z,82.70
2023-04-20T06:13:38.871Z,84.24
2023-04-20T06:16:09.783Z,84.37
2023-04-20T06:18:37.714Z,87.17
2023-04-20T06:21:04.767Z,86.08
2023-04-20T06:23:31.613Z,85.07
2023-04-20T06:25:58.437Z,84.57
2023-04-20T06:28:25.185Z,86.16
2023-04-20T06:30:52.173Z,85.44
2023-04-20T06:33:19.165Z,87.37
2023-04-20T06:35:46.170Z,85.57
2023-04-20T06:38:13.067Z,84.96
2023-04-20T06:40:39.878Z,86.57
2023-04-20T06:43:06.796Z,86.39
2023-04-20T06:45:34.376Z,87.95
2023-04-20T06:48:01.902Z,86.56
2023-04-20T06:50:28.824Z,86.15
2023-04-20T06:52:55.695Z,87.01
2023-04-20T06:55:22.592Z,87.30
2023-04-20T06:57:49.412Z,88.07
2023-04-20T07:00:16.942Z,87.76
2023-04-20T07:02:49.287Z,86.35
2023-04-20T07:05:17.562Z,86.71
2023-04-20T07:07:45.608Z,85.83
2023-04-20T07:10:14.724Z,84.61
2023-04-20T07:12:43.781Z,85.25
2023-04-20T07:15:11.097Z,85.42
2023-04-20T07:17:38.030Z,85.31
2023-04-20T07:20:09.055Z,84.65
2023-04-20T07:22:37.184Z,85.21
2023-04-20T07:25:06.307Z,85.37
2023-04-20T07:27:38.733Z,87.02
2023-04-20T07:30:07.114Z,85.31
2023-04-20T07:32:34.508Z,83.88
2023-04-20T07:35:01.354Z,83.61
2023-04-20T07:37:28.309Z,84.04
2023-04-20T07:39:55.280Z,83.73
2023-04-20T07:42:22.266Z,84.48
2023-04-20T07:44:49.552Z,83.92
2023-04-20T07:47:16.702Z,84.52
2023-04-20T07:49:43.974Z,82.77
2023-04-20T07:52:16.995Z,84.10
2023-04-20T07:54:45.782Z,82.16
2023-04-20T07:57:12.900Z,82.69
2023-04-20T07:59:40.929Z,82.81
2023-04-20T08:02:08.782Z,82.85
2023-04-20T08:04:39.435Z,82.85
2023-04-20T08:07:06.585Z,82.28
2023-04-20T08:09:33.447Z,83.68
2023-04-20T08:12:00.763Z,82.75
2023-04-20T08:14:27.892Z,82.32
2023-04-20T08:16:54.770Z,82.31
2023-04-20T08:19:21.769Z,83.86
2023-04-20T08:21:48.684Z,83.03
2023-04-20T08:24:16.199Z,81.92
2023-04-20T08:26:43.875Z,81.44
2023-04-20T08:29:10.964Z,80.69
2023-04-20T08:31:38.038Z,80.23
2023-04-20T08:34:04.970Z,80.61
2023-04-20T08:36:32.343Z,80.37
2023-04-20T08:39:08.001Z,82.47
2023-04-20T08:41:35.672Z,82.94
2023-04-20T08:44:02.909Z,81.46
2023-04-20T08:46:30.533Z,80.62
2023-04-20T08:49:00.592Z,81.32
2023-04-20T08:51:28.119Z,82.26
2023-04-20T08:53:56.540Z,81.69
2023-04-20T08:56:40.475Z,84.66
2023-04-20T08:59:10.460Z,80.21
2023-04-20T09:01:39.521Z,80.79
2023-04-20T09:04:20.094Z,79.07
2023-04-20T09:06:50.466Z,81.40
2023-04-20T09:09:17.720Z,81.10
2023-04-20T09:11:45.156Z,80.16
2023-04-20T09:14:14.249Z,81.01
2023-04-20T09:16:57.865Z,81.07
2023-04-20T09:19:25.613Z,82.15
2023-04-20T09:21:54.742Z,80.92
2023-04-20T09:24:23.531Z,81.36
2023-04-20T09:26:50.378Z,80.44
2023-04-20T09:29:19.104Z,79.11
2023-04-20T09:31:46.057Z,78.88
2023-04-20T09:34:13.026Z,78.52
2023-04-20T09:36:43.060Z,79.08
2023-04-20T09:39:10.843Z,79.81
2023-04-20T09:41:39.414Z,78.29
2023-04-20T09:44:07.368Z,79.99
2023-04-20T09:46:36.768Z,78.52
2023-04-20T09:49:05.428Z,78.65
2023-04-20T09:51:35.690Z,79.76
2023-04-20T09:54:04.590Z,79.95
2023-04-20T09:56:32.828Z,78.39
2023-04-20T09:59:00.433Z,80.56
2023-04-20T10:01:31.522Z,80.11
2023-04-20T10:04:00.516Z,80.16
2023-04-20T10:06:34.188Z,80.00
2023-04-20T10:09:03.611Z,79.50
2023-04-20T10:11:51.523Z,80.82
2023-04-20T10:14:23.417Z,80.23
2023-04-20T10:17:09.153Z,79.73
2023-04-20T10:19:37.162Z,79.96
2023-04-20T10:22:04.496Z,79.08
2023-04-20T10:24:32.343Z,80.14
2023-04-20T10:26:59.862Z,79.96
2023-04-20T10:29:28.695Z,80.53
2023-04-20T10:31:56.118Z,80.49
2023-04-20T10:34:37.015Z,80.26
2023-04-20T10:37:12.232Z,79.97
2023-04-20T10:39:47.274Z,81.51
2023-04-20T10:42:16.698Z,80.15
2023-04-20T10:44:54.836Z,80.16
2023-04-20T10:47:33.083Z,79.44
2023-04-20T10:50:14.357Z,79.98
2023-04-20T10:52:44.967Z,79.81
2023-04-20T10:55:23.494Z,81.44
2023-04-20T10:57:50.976Z,81.03
2023-04-20T11:00:19.164Z,81.24
2023-04-20T11:02:50.604Z,83.66
2023-04-20T11:05:22.658Z,82.84
2023-04-20T11:08:04.316Z,83.53
2023-04-20T11:10:43.450Z,84.98
2023-04-20T11:13:25.566Z,83.33
2023-04-20T11:15:52.464Z,83.34
2023-04-20T11:18:19.331Z,82.14
2023-04-20T11:20:53.677Z,80.69
2023-04-20T11:23:27.586Z,78.66
2023-04-20T11:25:57.518Z,76.03
2023-04-20T11:28:24.337Z,74.73
2023-04-20T11:30:51.288Z,75.53
2023-04-20T11:33:29.315Z,74.97
2023-04-20T11:36:00.612Z,75.94
2023-04-20T11:38:32.839Z,74.91
2023-04-20T11:41:04.784Z,72.96
2023-04-20T11:43:32.609Z,72.45
2023-04-20T11:46:03.190Z,71.31
2023-04-20T11:48:34.002Z,70.61
2023-04-20T11:51:00.915Z,69.57
2023-04-20T11:53:27.732Z,69.67
2023-04-20T11:55:54.524Z,67.99
2023-04-20T11:58:21.536Z,69.54
2023-04-20T12:00:48.343Z,70.38
2023-04-20T12:03:15.255Z,69.09
2023-04-20T12:05:43.498Z,66.81
2023-04-20T12:08:10.414Z,64.04
2023-04-20T12:10:37.274Z,65.02
2023-04-20T12:13:04.148Z,67.00
2023-04-20T12:15:31.019Z,67.39
2023-04-20T12:17:58.157Z,65.13
2023-04-20T12:20:25.106Z,66.30
2023-04-20T12:22:51.969Z,61.85
2023-04-20T12:25:18.840Z,59.80
2023-04-20T12:27:46.419Z,58.83
2023-04-20T12:30:14.755Z,58.48
2023-04-20T12:32:41.594Z,60.52
2023-04-20T12:35:08.781Z,62.25
2023-04-20T12:37:35.826Z,63.86
2023-04-20T12:40:02.666Z,64.13
2023-04-20T12:42:29.745Z,65.03
2023-04-20T12:44:56.665Z,62.33
2023-04-20T12:47:23.470Z,63.13
2023-04-20T12:49:50.432Z,62.04
2023-04-20T12:52:17.238Z,60.55
2023-04-20T12:54:44.335Z,58.86
2023-04-20T12:57:11.475Z,57.32
2023-04-20T12:59:38.328Z,55.82
2023-04-20T13:02:05.229Z,54.97
2023-04-20T13:04:32.245Z,57.36
2023-04-20T13:06:59.277Z,54.54
2023-04-20T13:09:27.320Z,51.57
2023-04-20T13:11:54.193Z,53.78
2023-04-20T13:14:21.414Z,54.48
2023-04-20T13:16:48.596Z,57.66
2023-04-20T13:19:15.921Z,56.51
2023-04-20T13:21:42.925Z,55.38
2023-04-20T13:24:09.942Z,56.03
2023-04-20T13:26:36.915Z,52.50
2023-04-20T13:29:03.846Z,54.82
2023-04-20T13:31:32.408Z,53.42
2023-04-20T13:33:59.298Z,53.22
2023-04-20T13:36:28.453Z,53.60
2023-04-20T13:38:56.129Z,54.04
2023-04-20T13:41:26.010Z,50.84
2023-04-20T13:43:52.857Z,45.13
2023-04-20T13:46:20.435Z,41.11
2023-04-20T13:48:47.261Z,43.02
2023-04-20T13:51:14.325Z,47.12
2023-04-20T13:53:41.467Z,50.37
2023-04-20T13:56:08.402Z,53.22
2023-04-20T13:58:35.268Z,53.70
2023-04-20T14:01:08.039Z,52.21
2023-04-20T14:03:35.091Z,47.33
2023-04-20T14:06:02.096Z,44.78
2023-04-20T14:08:32.072Z,44.27
2023-04-20T14:10:58.898Z,44.52
2023-04-20T14:13:26.247Z,49.68
2023-04-20T14:15:54.549Z,53.46
2023-04-20T14:18:21.594Z,56.32
2023-04-20T14:20:52.497Z,55.65
2023-04-20T14:23:19.852Z,56.73
2023-04-20T14:25:46.764Z,53.29
2023-04-20T14:28:15.389Z,50.80
2023-04-20T14:30:44.337Z,51.22
2023-04-20T14:33:11.713Z,53.29
2023-04-20T14:35:39.079Z,53.91
2023-04-20T14:38:05.957Z,53.76
2023-04-20T14:40:33.089Z,53.91
2023-04-20T14:43:00.312Z,50.36
2023-04-20T14:45:27.223Z,50.68
2023-04-20T14:47:55.302Z,51.24
2023-04-20T14:50:24.189Z,50.42
2023-04-20T14:52:52.758Z,51.06
2023-04-20T14:55:23.663Z,51.81
2023-04-20T14:57:57.783Z,53.11
2023-04-20T15:00:25.970Z,50.43
2023-04-20T15:02:53.667Z,48.73
2023-04-20T15:05:20.795Z,48.20
2023-04-20T15:07:50.880Z,49.76
2023-04-20T15:10:19.849Z,50.83
2023-04-20T15:12:47.960Z,54.43
2023-04-20T15:15:15.583Z,55.50
2023-04-20T15:17:42.614Z,55.47
2023-04-20T15:20:09.973Z,57.05
2023-04-20T15:22:37.973Z,57.57
2023-04-20T15:25:05.636Z,57.58
2023-04-20T15:27:39.424Z,54.94
2023-04-20T15:30:07.700Z,54.64
2023-04-20T15:32:34.832Z,51.79
2023-04-20T15:35:02.311Z,53.01
2023-04-20T15:37:29.281Z,51.66
2023-04-20T15:39:56.333Z,51.34
2023-04-20T15:42:23.226Z,49.16
2023-04-20T15:44:50.186Z,52.75
2023-04-20T15:47:17.111Z,53.04
2023-04-20T15:49:44.004Z,52.18
2023-04-20T15:52:10.897Z,54.05
2023-04-20T15:54:38.460Z,54.40
2023-04-20T15:57:05.534Z,55.51
2023-04-20T15:59:32.770Z,53.85
2023-04-20T16:01:59.875Z,55.01
2023-04-20T16:04:27.090Z,55.72
2023-04-20T16:06:54.030Z,57.24
2023-04-20T16:09:23.382Z,57.83
2023-04-20T16:11:50.601Z,61.14
2023-04-20T16:14:17.918Z,60.29
2023-04-20T16:16:45.108Z,58.60
2023-04-20T16:19:13.636Z,60.05
2023-04-20T16:21:41.201Z,60.69
2023-04-20T16:24:08.101Z,61.37
2023-04-20T16:26:34.947Z,62.94
2023-04-20T16:29:02.082Z,62.72
2023-04-20T16:31:29.771Z,64.22
2023-04-20T16:34:00.313Z,65.89
2023-04-20T16:36:27.475Z,65.32
2023-04-20T16:38:54.311Z,65.76
2023-04-20T16:41:21.932Z,65.96
2023-04-20T16:43:48.884Z,65.20
2023-04-20T16:46:22.439Z,65.83
2023-04-20T16:48:50.985Z,66.60
2023-04-20T16:51:17.912Z,67.00
2023-04-20T16:53:45.508Z,67.67
2023-04-20T16:56:12.761Z,68.17
2023-04-20T16:58:39.667Z,69.02
2023-04-20T17:01:08.177Z,69.58
2023-04-20T17:03:35.738Z,69.57
2023-04-20T17:06:07.589Z,69.33
2023-04-20T17:08:34.852Z,70.87
2023-04-20T17:11:04.588Z,72.65
2023-04-20T17:13:33.146Z,73.20
2023-04-20T17:16:00.925Z,74.42
2023-04-20T17:18:27.801Z,75.45
2023-04-20T17:20:57.433Z,75.99
2023-04-20T17:23:24.407Z,75.82
2023-04-20T17:25:51.555Z,76.56
2023-04-20T17:28:18.483Z,77.34
2023-04-20T17:30:45.406Z,75.97
2023-04-20T17:33:15.065Z,78.22
2023-04-20T17:35:41.983Z,77.82
2023-04-20T17:38:11.616Z,78.53
2023-04-20T17:40:38.493Z,80.79
2023-04-20T17:43:05.422Z,81.34
2023-04-20T17:45:32.332Z,83.26
2023-04-20T17:47:59.155Z,84.64
2023-04-20T17:50:26.196Z,86.05
2023-04-20T17:52:52.983Z,87.85
2023-04-20T17:55:19.850Z,88.00
2023-04-20T17:57:46.817Z,88.41
2023-04-20T18:00:14.310Z,88.38
2023-04-20T18:02:41.281Z,88.29
2023-04-20T18:05:08.610Z,89.46
2023-04-20T18:07:35.527Z,89.59
2023-04-20T18:10:02.951Z,89.37
2023-04-20T18:12:29.725Z,89.82
2023-04-20T18:14:56.523Z,89.26
2023-04-20T18:17:23.343Z,90.47
2023-04-20T18:19:50.195Z,90.01
2023-04-20T18:22:17.163Z,90.42
2023-04-20T18:24:44.061Z,89.44
2023-04-20T18:27:10.969Z,89.78
2023-04-20T18:29:37.922Z,91.29
2023-04-20T18:32:05.008Z,89.80
2023-04-20T18:34:32.354Z,88.97
2023-04-20T18:36:59.537Z,89.04
2023-04-20T18:39:26.690Z,89.48
2023-04-20T18:41:53.597Z,89.33
2023-04-20T18:44:20.718Z,88.41
2023-04-20T18:46:47.987Z,89.34
2023-04-20T18:49:14.850Z,89.85
2023-04-20T18:51:41.674Z,89.36
2023-04-20T18:54:08.495Z,89.53
2023-04-20T18:56:37.105Z,89.76
2023-04-20T18:59:04.612Z,89.00
2023-04-20T19:01:32.730Z,89.02
2023-04-20T19:04:00.007Z,88.39
2023-04-20T19:06:28.198Z,89.25
2023-04-20T19:08:56.125Z,89.25
2023-04-20T19:11:23.374Z,88.29
2023-04-20T19:13:50.346Z,89.02
2023-04-20T19:16:17.290Z,87.72
2023-04-20T19:18:45.228Z,88.30
2023-04-20T19:21:12.125Z,87.18
2023-04-20T19:23:38.906Z,86.86
2023-04-20T19:26:05.788Z,87.79
2023-04-20T19:28:32.784Z,87.89
2023-04-20T19:31:00.601Z,88.91
2023-04-20T19:33:27.415Z,87.37
2023-04-20T19:35:54.427Z,88.39
2023-04-20T19:38:24.556Z,88.52
2023-04-20T19:40:51.569Z,87.71
2023-04-20T19:43:18.441Z,87.04
2023-04-20T19:45:45.279Z,87.36
2023-04-20T19:48:12.606Z,88.54
2023-04-20T19:50:39.545Z,88.20
2023-04-20T19:53:07.177Z,86.75
2023-04-20T19:55:34.182Z,87.09
2023-04-20T19:58:01.140Z,87.59
2023-04-20T20:00:28.081Z,86.42
2023-04-20T20:02:55.120Z,86.93
2023-04-20T20:05:22.130Z,87.33
2023-04-20T20:07:48.998Z,87.05
2023-04-20T20:10:16.151Z,86.69
2023-04-20T20:12:43.145Z,86.95
2023-04-20T20:15:10.085Z,87.15
2023-04-20T20:17:37.289Z,87.08
2023-04-20T20:20:06.328Z,87.11
2023-04-20T20:22:33.709Z,87.07
2023-04-20T20:25:01.570Z,88.32
2023-04-20T20:27:28.715Z,87.49
2023-04-20T20:29:55.642Z,87.38
2023-04-20T20:32:23.166Z,88.66
2023-04-20T20:34:50.305Z,87.97
2023-04-20T20:37:17.113Z,88.57
2023-04-20T20:39:44.201Z,88.87
2023-04-20T20:42:12.907Z,88.89
2023-04-20T20:44:40.237Z,88.47
2023-04-20T20:47:07.131Z,88.30
2023-04-20T20:49:34.081Z,88.38
2023-04-20T20:52:02.551Z,89.89
2023-04-20T20:54:29.435Z,89.40
2023-04-20T20:56:56.268Z,89.66
2023-04-20T20:59:23.111Z,88.93
2023-04-20T21:01:50.106Z,89.80
2023-04-20T21:04:17.129Z,89.07
2023-04-20T21:06:44.014Z,88.86
2023-04-20T21:09:10.864Z,88.90
2023-04-20T21:11:37.696Z,89.17
2023-04-20T21:14:04.667Z,89.71
2023-04-20T21:16:31.580Z,89.22
2023-04-20T21:18:58.469Z,89.36
2023-04-20T21:21:25.464Z,90.33
2023-04-20T21:23:52.363Z,90.17
2023-04-20T21:26:19.275Z,89.10
2023-04-20T21:28:46.147Z,89.53
2023-04-20T21:31:13.077Z,89.22
2023-04-20T21:33:40.165Z,87.95
2023-04-20T21:36:07.724Z,88.28
2023-04-20T21:38:34.760Z,88.51
2023-04-20T21:41:01.710Z,88.99
2023-04-20T21:43:28.611Z,89.10
2023-04-20T21:45:55.595Z,88.95
2023-04-20T21:48:22.618Z,89.08
2023-04-20T21:50:49.424Z,89.69
2023-04-20T21:53:16.449Z,89.81
2023-04-20T21:55:43.521Z,90.08
2023-04-20T21:58:10.496Z,90.30
2023-04-20T22:00:38.239Z,90.17
2023-04-20T22:03:05.591Z,90.40
2023-04-20T22:05:32.946Z,90.58
2023-04-20T22:07:59.899Z,90.75
2023-04-20T22:10:27.191Z,91.02
2023-04-20T22:12:54.065Z,91.17
2023-04-20T22:15:22.585Z,91.36
2023-04-20T22:17:49.615Z,91.22
2023-04-20T22:20:19.437Z,91.63
2023-04-20T22:22:46.732Z,91.63
2023-04-20T22:25:13.672Z,91.59
2023-04-20T22:27:40.533Z,92.01
2023-04-20T22:30:09.728Z,92.01
2023-04-20T22:32:37.671Z,91.66
2023-04-20T22:35:05.096Z,91.23
2023-04-20T22:37:31.946Z,91.75
2023-04-20T22:39:59.086Z,91.34
2023-04-20T22:42:26.187Z,91.20
2023-04-20T22:44:53.020Z,90.95
2023-04-20T22:47:19.879Z,91.02
2023-04-20T22:49:46.938Z,90.72
2023-04-20T22:52:13.904Z,90.65
2023-04-20T22:54:40.765Z,91.13
2023-04-20T22:57:07.624Z,90.35
2023-04-20T22:59:34.525Z,90.48
2023-04-20T23:02:01.409Z,89.61
2023-04-20T23:04:28.313Z,90.01
2023-04-20T23:06:56.313Z,89.78
2023-04-20T23:09:23.339Z,89.79
2023-04-20T23:11:50.994Z,89.12
2023-04-20T23:14:17.891Z,88.10
2023-04-20T23:16:44.894Z,89.30
2023-04-20T23:19:11.908Z,88.28
2023-04-20T23:21:38.707Z,87.90
2023-04-20T23:24:05.785Z,87.44
2023-04-20T23:26:32.726Z,87.61
2023-04-20T23:28:59.701Z,88.24
2023-04-20T23:31:26.813Z,87.08
2023-04-20T23:33:53.841Z,86.61
2023-04-20T23:36:20.811Z,86.85
2023-04-20T23:38:47.686Z,86.63
2023-04-20T23:41:15.383Z,85.85
2023-04-20T23:43:42.719Z,85.49
2023-04-20T23:46:09.561Z,85.53
2023-04-20T23:48:36.405Z,86.12
2023-04-20T23:51:03.405Z,86.33
2023-04-20T23:53:30.246Z,85.59
2023-04-20T23:55:57.225Z,85.15
2023-04-20T23:58:28.278Z,85.23
